createdAt,value
2019-04-10T00:01:09.205Z,99.90
2019-04-10T00:03:37.827Z,99.90
2019-04-10T00:06:04.688Z,99.90
2019-04-10T00:08:32.455Z,99.90
2019-04-10T00:11:00.467Z,99.90
2019-04-10T00:13:28.931Z,99.90
2019-04-10T00:15:57.077Z,99.90
2019-04-10T00:18:26.199Z,99.90
2019-04-10T00:20:53.310Z,99.90
2019-04-10T00:23:22.651Z,99.90
2019-04-10T00:25:50.795Z,99.90
2019-04-10T00:28:19.093Z,99.90
2019-04-10T00:30:46.267Z,99.90
2019-04-10T00:33:14.568Z,99.90
2019-04-10T00:35:43.762Z,99.90
2019-04-10T00:38:10.890Z,99.90
2019-04-10T00:40:39.510Z,99.90
2019-04-10T00:43:07.337Z,99.90
2019-04-10T00:45:35.656Z,99.90
2019-04-10T00:48:03.778Z,99.90
2019-04-10T00:50:32.775Z,99.90
2019-04-10T00:53:00.925Z,99.90
2019-04-10T00:55:28.861Z,99.90
2019-04-10T00:57:56.658Z,99.90
2019-04-10T01:00:25.554Z,99.90
2019-04-10T01:02:53.325Z,99.90
2019-04-10T01:05:21.373Z,99.90
2019-04-10T01:07:49.775Z,99.90
2019-04-10T01:10:18.072Z,99.90
2019-04-10T01:12:46.274Z,99.90
2019-04-10T01:15:14.465Z,99.90
2019-04-10T01:17:43.386Z,99.90
2019-04-10T01:20:11.382Z,99.90
2019-04-10T01:22:39.615Z,99.90
2019-04-10T01:25:08.275Z,99.90
2019-04-10T01:27:36.192Z,99.90
2019-04-10T01:30:04.351Z,99.90
2019-04-10T01:32:34.231Z,99.90
2019-04-10T01:35:02.490Z,99.90
2019-04-10T01:37:29.974Z,99.90
2019-04-10T01:39:59.016Z,99.90
2019-04-10T01:42:26.468Z,99.90
2019-04-10T01:44:55.227Z,99.90
2019-04-10T01:47:23.431Z,99.90
2019-04-10T01:49:51.124Z,99.90
2019-04-10T01:52:19.352Z,99.90
2019-04-10T01:54:47.573Z,99.90
2019-04-10T01:57:16.684Z,99.90
2019-04-10T01:59:43.969Z,99.90
2019-04-10T02:02:14.824Z,99.90
2019-04-10T02:04:42.362Z,99.90
2019-04-10T02:07:10.535Z,99.90
2019-04-10T02:09:39.288Z,99.90
2019-04-10T02:12:07.176Z,99.90
2019-04-10T02:14:36.346Z,99.90
2019-04-10T02:17:04.287Z,99.90
2019-04-10T02:19:32.288Z,99.90
2019-04-10T02:22:00.309Z,99.90
2019-04-10T02:24:29.267Z,99.90
2019-04-10T02:26:56.344Z,99.90
2019-04-10T02:29:24.553Z,99.90
2019-04-10T02:31:54.870Z,99.90
2019-04-10T02:34:21.364Z,99.90
2019-04-10T02:36:50.671Z,99.90
2019-04-10T02:39:26.607Z,99.90
2019-04-10T02:41:45.867Z,99.90
2019-04-10T02:44:14.065Z,99.90
2019-04-10T02:46:42.138Z,99.90
2019-04-10T02:49:12.087Z,99.90
2019-04-10T02:51:38.951Z,99.90
2019-04-10T02:54:06.840Z,99.90
2019-04-10T02:56:36.524Z,99.90
2019-04-10T02:59:04.863Z,99.90
2019-04-10T03:01:31.629Z,99.90
2019-04-10T03:04:01.308Z,99.90
2019-04-10T03:06:29.186Z,99.90
2019-04-10T03:09:13.769Z,99.90
2019-04-10T03:11:25.905Z,99.90
2019-04-10T03:13:53.377Z,99.90
2019-04-10T03:16:21.604Z,99.90
2019-04-10T03:18:49.324Z,99.90
2019-04-10T03:21:17.245Z,99.90
2019-04-10T03:23:45.505Z,99.90
2019-04-10T03:26:13.728Z,99.90
2019-04-10T03:28:43.000Z,99.90
2019-04-10T03:31:10.745Z,99.90
2019-04-10T03:33:44.173Z,99.90
2019-04-10T03:36:07.369Z,99.90
2019-04-10T03:38:47.315Z,99.90
2019-04-10T03:41:04.018Z,99.90
2019-04-10T03:43:32.011Z,99.90
2019-04-10T03:45:59.628Z,99.90
2019-04-10T03:48:27.858Z,99.90
2019-04-10T03:50:57.130Z,99.90
2019-04-10T03:53:24.644Z,99.90
2019-04-10T03:55:53.550Z,99.90
2019-04-10T03:58:20.783Z,99.90
2019-04-10T04:00:50.544Z,99.90
2019-04-10T04:03:18.227Z,99.90
2019-04-10T04:05:45.445Z,99.90
2019-04-10T04:08:13.708Z,99.90
2019-04-10T04:10:42.614Z,99.90
2019-04-10T04:13:11.077Z,99.90
2019-04-10T04:15:38.443Z,99.90
2019-04-10T04:18:06.794Z,99.90
2019-04-10T04:20:35.036Z,99.90
2019-04-10T04:23:03.481Z,99.90
2019-04-10T04:25:32.422Z,99.90
2019-04-10T04:28:00.454Z,99.90
2019-04-10T04:30:27.819Z,99.90
2019-04-10T04:32:56.114Z,99.90
2019-04-10T04:35:24.271Z,99.90
2019-04-10T04:37:52.678Z,99.90
2019-04-10T04:40:21.739Z,99.90
2019-04-10T04:42:49.402Z,99.90
2019-04-10T04:45:17.327Z,99.90
2019-04-10T04:47:45.425Z,99.90
2019-04-10T04:50:13.657Z,99.90
2019-04-10T04:52:41.934Z,99.90
2019-04-10T04:55:10.158Z,99.90
2019-04-10T04:57:39.670Z,99.90
2019-04-10T05:00:07.657Z,99.90
2019-04-10T05:02:34.885Z,99.90
2019-04-10T05:05:03.036Z,99.90
2019-04-10T05:07:31.309Z,99.90
2019-04-10T05:10:01.418Z,99.90
2019-04-10T05:12:27.725Z,99.90
2019-04-10T05:14:55.872Z,99.90
2019-04-10T05:17:24.197Z,99.90
2019-04-10T05:19:52.586Z,99.90
2019-04-10T05:22:20.683Z,99.90
2019-04-10T05:24:48.954Z,99.90
2019-04-10T05:27:18.095Z,99.90
2019-04-10T05:29:45.431Z,99.90
2019-04-10T05:32:14.512Z,99.90
2019-04-10T05:34:43.207Z,99.90
2019-04-10T05:37:10.139Z,99.90
2019-04-10T05:39:43.215Z,99.90
2019-04-10T05:42:06.586Z,99.90
2019-04-10T05:44:35.058Z,99.90
2019-04-10T05:47:03.368Z,99.90
2019-04-10T05:49:31.229Z,99.90
2019-04-10T05:51:59.492Z,99.90
2019-04-10T05:54:27.705Z,99.90
2019-04-10T05:56:55.951Z,99.90
2019-04-10T05:59:24.173Z,99.90
2019-04-10T06:01:52.715Z,99.90
2019-04-10T06:04:21.048Z,99.90
2019-04-10T06:06:48.877Z,99.90
2019-04-10T06:09:17.108Z,99.90
2019-04-10T06:11:45.755Z,99.90
2019-04-10T06:14:13.614Z,99.90
2019-04-10T06:16:42.625Z,99.90
2019-04-10T06:19:10.041Z,99.90
2019-04-10T06:21:38.292Z,99.90
2019-04-10T06:24:07.768Z,99.90
2019-04-10T06:26:35.526Z,99.90
2019-04-10T06:29:02.935Z,99.90
2019-04-10T06:31:31.137Z,99.90
2019-04-10T06:34:00.365Z,99.90
2019-04-10T06:36:27.571Z,99.90
2019-04-10T06:38:55.791Z,99.90
2019-04-10T06:41:24.302Z,99.90
2019-04-10T06:43:53.080Z,99.90
2019-04-10T06:46:20.458Z,99.90
2019-04-10T06:48:48.685Z,99.90
2019-04-10T06:51:18.825Z,99.90
2019-04-10T06:53:45.184Z,99.90
2019-04-10T06:56:13.429Z,99.90
2019-04-10T06:58:42.442Z,99.90
2019-04-10T07:01:10.424Z,99.90
2019-04-10T07:03:49.490Z,99.90
2019-04-10T07:06:14.383Z,99.90
2019-04-10T07:08:34.605Z,99.90
2019-04-10T07:11:08.662Z,99.90
2019-04-10T07:13:32.145Z,99.90
2019-04-10T07:15:59.973Z,99.90
2019-04-10T07:18:28.423Z,99.90
2019-04-10T07:20:58.359Z,99.90
2019-04-10T07:23:28.817Z,99.90
2019-04-10T07:25:52.245Z,99.90
2019-04-10T07:28:21.555Z,99.90
2019-04-10T07:30:48.762Z,99.90
2019-04-10T07:33:19.194Z,99.90
2019-04-10T07:35:46.370Z,99.90
2019-04-10T07:38:13.935Z,99.90
2019-04-10T07:40:42.791Z,99.90
2019-04-10T07:43:09.880Z,99.90
2019-04-10T07:45:38.138Z,99.90
2019-04-10T07:48:06.614Z,99.90
2019-04-10T07:50:34.865Z,99.90
2019-04-10T07:53:03.053Z,99.90
2019-04-10T07:55:31.033Z,99.90
2019-04-10T07:57:59.383Z,99.90
2019-04-10T08:00:28.471Z,99.90
2019-04-10T08:02:57.238Z,99.90
2019-04-10T08:05:25.048Z,99.90
2019-04-10T08:10:50.956Z,99.90
2019-04-10T08:13:18.783Z,99.90
2019-04-10T08:15:47.018Z,99.90
2019-04-10T08:18:15.300Z,99.90
2019-04-10T08:20:43.534Z,99.90
2019-04-10T08:23:12.330Z,99.90
2019-04-10T08:25:40.875Z,99.90
2019-04-10T08:28:09.163Z,99.90
2019-04-10T08:30:36.480Z,99.90
2019-04-10T08:33:05.981Z,99.90
2019-04-10T08:35:33.594Z,99.90
2019-04-10T08:38:01.390Z,99.90
2019-04-10T08:40:30.009Z,99.90
2019-04-10T08:42:57.868Z,99.90
2019-04-10T08:45:35.788Z,99.90
2019-04-10T08:47:54.295Z,99.90
2019-04-10T08:50:22.540Z,99.90
2019-04-10T08:52:50.866Z,99.90
2019-04-10T08:55:19.051Z,99.90
2019-04-10T08:57:48.486Z,99.90
2019-04-10T09:00:16.739Z,99.90
2019-04-10T09:02:44.991Z,99.90
2019-04-10T09:05:13.313Z,99.90
2019-04-10T09:07:41.425Z,99.90
2019-04-10T09:10:10.247Z,99.90
2019-04-10T09:12:38.952Z,99.90
2019-04-10T09:15:07.800Z,99.90
2019-04-10T09:17:35.591Z,99.90
2019-04-10T09:20:04.509Z,99.90
2019-04-10T09:22:47.960Z,99.90
2019-04-10T09:25:00.712Z,99.90
2019-04-10T09:27:28.972Z,99.90
2019-04-10T09:29:56.754Z,99.90
2019-04-10T09:32:26.457Z,99.90
2019-04-10T09:34:54.309Z,99.90
2019-04-10T09:37:22.571Z,99.90
2019-04-10T09:39:52.391Z,99.90
2019-04-10T09:42:19.407Z,99.90
2019-04-10T09:44:48.497Z,99.90
2019-04-10T09:47:16.430Z,99.90
2019-04-10T09:49:46.784Z,99.90
2019-04-10T09:52:12.423Z,99.90
2019-04-10T09:54:40.477Z,99.90
2019-04-10T09:57:09.095Z,99.90
2019-04-10T09:59:39.580Z,99.90
2019-04-10T10:02:05.157Z,99.90
2019-04-10T10:04:33.413Z,99.90
2019-04-10T10:07:01.975Z,99.90
2019-04-10T10:09:30.718Z,99.90
2019-04-10T10:11:58.932Z,99.90
2019-04-10T10:14:26.578Z,99.90
2019-04-10T10:16:54.648Z,99.90
2019-04-10T10:19:23.737Z,99.90
2019-04-10T10:21:51.133Z,99.90
2019-04-10T10:24:19.429Z,99.90
2019-04-10T10:26:47.732Z,99.90
2019-04-10T10:29:15.927Z,99.90
2019-04-10T10:31:44.443Z,99.90
2019-04-10T10:34:12.393Z,99.90
2019-04-10T10:36:44.467Z,99.90
2019-04-10T10:39:14.395Z,99.90
2019-04-10T10:41:40.955Z,99.90
2019-04-10T10:44:09.243Z,99.90
2019-04-10T10:46:37.716Z,99.90
2019-04-10T10:49:06.271Z,99.90
2019-04-10T10:51:34.965Z,99.90
2019-04-10T10:54:03.857Z,99.90
2019-04-10T10:56:30.672Z,99.90
2019-04-10T10:58:59.023Z,99.90
2019-04-10T11:01:27.564Z,99.90
2019-04-10T11:03:56.262Z,99.90
2019-04-10T11:06:23.351Z,99.90
2019-04-10T11:08:51.990Z,99.90
2019-04-10T11:11:20.199Z,99.90
2019-04-10T11:13:48.521Z,99.90
2019-04-10T11:16:17.090Z,99.90
2019-04-10T11:18:45.094Z,99.90
2019-04-10T11:21:14.124Z,99.90
2019-04-10T11:23:42.441Z,99.90
2019-04-10T11:26:11.073Z,99.90
2019-04-10T11:28:39.163Z,99.90
2019-04-10T11:31:07.511Z,99.90
2019-04-10T11:33:34.820Z,99.90
2019-04-10T11:36:03.774Z,99.90
2019-04-10T11:38:31.136Z,99.90
2019-04-10T11:41:00.076Z,99.90
2019-04-10T11:43:27.897Z,99.90
2019-04-10T11:45:58.501Z,99.90
2019-04-10T11:48:25.641Z,99.90
2019-04-10T11:50:55.842Z,99.90
2019-04-10T11:53:21.478Z,99.90
2019-04-10T11:55:50.973Z,99.90
2019-04-10T11:58:17.899Z,99.90
2019-04-10T12:00:51.209Z,99.90
2019-04-10T12:03:15.251Z,99.90
2019-04-10T12:05:42.375Z,99.90
2019-04-10T12:08:33.642Z,99.90
2019-04-10T12:13:06.427Z,99.90
2019-04-10T12:15:34.650Z,99.90
2019-04-10T12:18:02.887Z,99.90
2019-04-10T12:20:31.349Z,99.90
2019-04-10T12:23:00.460Z,99.90
2019-04-10T12:25:27.684Z,99.90
2019-04-10T12:27:55.939Z,99.90
2019-04-10T12:30:24.213Z,99.90
2019-04-10T12:32:52.617Z,98.60
2019-04-10T12:35:20.601Z,99.80
2019-04-10T12:38:01.451Z,95.80
2019-04-10T12:40:19.408Z,96.30
2019-04-10T12:42:46.458Z,95.30
2019-04-10T12:45:15.710Z,96.80
2019-04-10T12:47:42.940Z,97.50
2019-04-10T12:50:12.067Z,96.80
2019-04-10T12:52:39.398Z,97.50
2019-04-10T12:55:08.155Z,96.50
2019-04-10T12:57:35.793Z,96.10
2019-04-10T13:00:04.950Z,90.50
2019-04-10T13:02:32.311Z,95.30
2019-04-10T13:05:00.829Z,93.60
2019-04-10T13:07:29.680Z,88.80
2019-04-10T13:09:58.080Z,85.80
2019-04-10T13:12:25.148Z,81.80
2019-04-10T13:14:53.419Z,86.30
2019-04-10T13:17:22.698Z,81.90
2019-04-10T13:19:49.848Z,80.90
2019-04-10T13:22:18.112Z,76.30
2019-04-10T13:24:46.310Z,81.20
2019-04-10T13:27:14.696Z,80.80
2019-04-10T13:29:42.765Z,84.10
2019-04-10T13:32:11.731Z,84.60
2019-04-10T13:34:39.653Z,88.50
2019-04-10T13:37:08.315Z,90.20
2019-04-10T13:39:35.696Z,91.60
2019-04-10T13:42:04.985Z,93.30
2019-04-10T13:44:32.923Z,90.40
2019-04-10T13:47:01.510Z,91.10
2019-04-10T13:49:28.918Z,92.80
2019-04-10T13:51:57.159Z,93.60
2019-04-10T13:54:26.332Z,96.90
2019-04-10T13:56:53.547Z,94.60
2019-04-10T13:59:22.667Z,94.70
2019-04-10T14:01:50.189Z,96.70
2019-04-10T14:04:18.764Z,97.20
2019-04-10T14:06:49.148Z,98.30
2019-04-10T14:09:28.773Z,99.90
2019-04-10T14:11:43.679Z,99.40
2019-04-10T14:14:11.244Z,99.50
2019-04-10T14:16:39.441Z,99.60
2019-04-10T14:19:07.762Z,99.90
2019-04-10T14:21:35.865Z,99.80
2019-04-10T14:24:05.107Z,99.90
2019-04-10T14:26:43.942Z,99.90
2019-04-10T14:29:05.280Z,99.90
2019-04-10T14:31:32.572Z,99.10
2019-04-10T14:34:01.676Z,99.30
2019-04-10T14:36:29.780Z,99.80
2019-04-10T14:39:08.638Z,95.40
2019-04-10T14:41:26.189Z,94.60
2019-04-10T14:43:53.734Z,94.10
2019-04-10T14:46:21.920Z,95.90
2019-04-10T14:48:50.291Z,92.80
2019-04-10T14:51:18.469Z,85.80
2019-04-10T14:53:46.915Z,85.20
2019-04-10T14:56:15.636Z,85.10
2019-04-10T14:58:43.152Z,77.10
2019-04-10T15:01:11.901Z,76.10
2019-04-10T15:03:40.404Z,74.00
2019-04-10T15:06:09.157Z,74.30
2019-04-10T15:08:36.587Z,76.40
2019-04-10T15:11:04.803Z,77.60
2019-04-10T15:13:33.932Z,79.60
2019-04-10T15:16:01.202Z,79.20
2019-04-10T15:18:29.481Z,75.60
2019-04-10T15:20:58.598Z,80.40
2019-04-10T15:23:26.034Z,78.40
2019-04-10T15:25:55.412Z,78.50
2019-04-10T15:28:23.227Z,78.50
2019-04-10T15:30:50.865Z,85.00
2019-04-10T15:33:18.983Z,79.70
2019-04-10T15:35:47.245Z,76.80
2019-04-10T15:38:15.421Z,77.10
2019-04-10T15:40:44.049Z,75.20
2019-04-10T15:43:12.631Z,76.50
2019-04-10T15:45:40.182Z,76.30
2019-04-10T15:48:08.450Z,76.10
2019-04-10T15:50:36.719Z,74.00
2019-04-10T15:53:05.037Z,74.20
2019-04-10T15:55:33.198Z,73.10
2019-04-10T15:58:03.630Z,72.70
2019-04-10T16:00:29.606Z,72.40
2019-04-10T16:02:57.881Z,70.90
2019-04-10T16:05:26.115Z,73.00
2019-04-10T16:07:55.250Z,69.80
2019-04-10T16:10:26.464Z,69.50
2019-04-10T16:12:55.514Z,70.60
2019-04-10T16:15:22.930Z,74.00
2019-04-10T16:17:52.470Z,71.80
2019-04-10T16:20:19.659Z,70.70
2019-04-10T16:22:51.036Z,70.80
2019-04-10T16:25:19.773Z,71.50
2019-04-10T16:27:48.213Z,71.60
2019-04-10T16:30:17.207Z,74.00
2019-04-10T16:32:44.715Z,71.30
2019-04-10T16:35:13.883Z,69.30
2019-04-10T16:37:41.864Z,71.00
2019-04-10T16:40:10.504Z,71.00
2019-04-10T16:42:37.657Z,71.70
2019-04-10T16:45:05.943Z,71.70
2019-04-10T16:47:34.363Z,72.40
2019-04-10T16:50:03.432Z,73.00
2019-04-10T16:52:31.252Z,74.40
2019-04-10T16:54:59.707Z,76.80
2019-04-10T16:57:26.992Z,78.30
2019-04-10T16:59:56.048Z,76.20
2019-04-10T17:02:24.233Z,75.80
2019-04-10T17:04:52.166Z,76.00
2019-04-10T17:07:21.008Z,76.90
2019-04-10T17:09:49.936Z,77.80
2019-04-10T17:12:16.467Z,78.20
2019-04-10T17:14:45.703Z,78.50
2019-04-10T17:17:12.965Z,80.40
2019-04-10T17:19:49.258Z,78.90
2019-04-10T17:22:09.405Z,78.20
2019-04-10T17:24:37.660Z,78.50
2019-04-10T17:27:06.417Z,79.30
2019-04-10T17:29:34.156Z,79.10
2019-04-10T17:32:02.648Z,77.50
2019-04-10T17:34:30.614Z,79.10
2019-04-10T17:36:59.214Z,78.50
2019-04-10T17:39:27.198Z,78.80
2019-04-10T17:41:55.821Z,79.50
2019-04-10T17:44:23.613Z,79.10
2019-04-10T17:46:51.888Z,80.20
2019-04-10T17:49:20.192Z,79.70
2019-04-10T17:51:48.309Z,79.50
2019-04-10T17:54:17.792Z,82.40
2019-04-10T17:56:44.792Z,82.70
2019-04-10T17:59:14.098Z,82.60
2019-04-10T18:01:41.256Z,87.10
2019-04-10T18:04:09.567Z,83.40
2019-04-10T18:06:37.679Z,84.10
2019-04-10T18:09:05.961Z,82.90
2019-04-10T18:11:34.145Z,83.60
2019-04-10T18:14:02.741Z,82.60
2019-04-10T18:16:30.613Z,83.50
2019-04-10T18:19:00.010Z,84.50
2019-04-10T18:21:27.092Z,86.50
2019-04-10T18:23:55.761Z,85.60
2019-04-10T18:26:23.690Z,84.40
2019-04-10T18:28:52.029Z,85.20
2019-04-10T18:31:23.551Z,85.60
2019-04-10T18:33:48.938Z,87.10
2019-04-10T18:36:17.467Z,85.10
2019-04-10T18:38:45.863Z,85.10
2019-04-10T18:41:13.766Z,86.90
2019-04-10T18:43:41.193Z,87.60
2019-04-10T18:46:13.398Z,86.90
2019-04-10T18:48:38.778Z,87.10
2019-04-10T18:51:07.815Z,87.10
2019-04-10T18:53:35.145Z,87.50
2019-04-10T18:56:03.012Z,88.20
2019-04-10T18:58:31.679Z,88.30
2019-04-10T19:00:59.518Z,88.50
2019-04-10T19:03:29.647Z,90.00
2019-04-10T19:05:58.350Z,90.30
2019-04-10T19:08:26.090Z,90.20
2019-04-10T19:11:09.513Z,90.60
2019-04-10T19:13:22.530Z,91.30
2019-04-10T19:15:50.855Z,91.80
2019-04-10T19:18:19.566Z,92.30
2019-04-10T19:20:47.066Z,92.00
2019-04-10T19:23:15.314Z,92.10
2019-04-10T19:25:43.614Z,92.90
2019-04-10T19:28:12.807Z,94.00
2019-04-10T19:30:40.043Z,93.90
2019-04-10T19:33:08.288Z,93.00
2019-04-10T19:35:37.289Z,93.70
2019-04-10T19:38:05.181Z,93.90
2019-04-10T19:40:33.962Z,94.50
2019-04-10T19:43:01.990Z,95.60
2019-04-10T19:45:29.902Z,94.50
2019-04-10T19:47:58.913Z,95.70
2019-04-10T19:50:25.830Z,96.30
2019-04-10T19:52:55.046Z,96.90
2019-04-10T19:55:22.270Z,97.70
2019-04-10T19:57:50.478Z,98.00
2019-04-10T20:00:19.934Z,98.80
2019-04-10T20:02:46.949Z,99.70
2019-04-10T20:05:15.310Z,99.90
2019-04-10T20:07:43.555Z,99.90
2019-04-10T20:10:12.876Z,99.90
2019-04-10T20:12:40.445Z,99.90
2019-04-10T20:15:08.344Z,99.90
2019-04-10T20:17:36.539Z,99.90
2019-04-10T20:20:04.782Z,99.90
2019-04-10T20:22:32.993Z,99.90
2019-04-10T20:25:02.152Z,99.90
2019-04-10T20:27:29.395Z,99.90
2019-04-10T20:29:58.008Z,99.90
2019-04-10T20:32:26.062Z,99.90
2019-04-10T20:34:54.280Z,99.90
2019-04-10T20:37:22.907Z,99.90
2019-04-10T20:39:51.633Z,99.90
2019-04-10T20:42:18.931Z,99.90
2019-04-10T20:44:47.173Z,99.90
2019-04-10T20:47:15.783Z,99.90
2019-04-10T20:49:44.627Z,99.90
2019-04-10T20:52:13.209Z,99.90
2019-04-10T20:54:39.975Z,99.90
2019-04-10T20:57:08.225Z,99.90
2019-04-10T20:59:37.065Z,99.90
2019-04-10T21:02:06.155Z,99.90
2019-04-10T21:04:33.824Z,99.90
2019-04-10T21:07:02.772Z,99.90
2019-04-10T21:09:29.906Z,99.90
2019-04-10T21:12:05.257Z,99.90
2019-04-10T21:14:26.220Z,99.90
2019-04-10T21:16:54.427Z,99.90
2019-04-10T21:19:22.667Z,99.90
2019-04-10T21:21:51.057Z,99.90
2019-04-10T21:24:19.081Z,99.90
2019-04-10T21:26:48.469Z,99.90
2019-04-10T21:29:16.357Z,99.90
2019-04-10T21:31:48.310Z,99.90
2019-04-10T21:34:15.827Z,99.90
2019-04-10T21:36:44.016Z,99.90
2019-04-10T21:39:12.400Z,99.90
2019-04-10T21:41:41.156Z,99.90
2019-04-10T21:44:09.910Z,99.90
2019-04-10T21:46:36.899Z,99.90
2019-04-10T21:49:05.705Z,99.90
2019-04-10T21:51:33.590Z,99.90
2019-04-10T21:54:02.226Z,99.90
2019-04-10T21:56:30.927Z,99.90
2019-04-10T21:58:59.147Z,99.90
2019-04-10T22:01:26.365Z,99.90
2019-04-10T22:03:54.578Z,99.90
2019-04-10T22:06:26.719Z,99.90
2019-04-10T22:08:58.299Z,99.90
2019-04-10T22:11:26.095Z,99.90
2019-04-10T22:13:54.812Z,99.90
2019-04-10T22:16:22.630Z,99.90
2019-04-10T22:18:51.880Z,99.90
2019-04-10T22:21:19.036Z,99.90
2019-04-10T22:23:47.308Z,99.90
2019-04-10T22:26:15.796Z,99.90
2019-04-10T22:28:43.733Z,99.90
2019-04-10T22:31:11.947Z,99.90
2019-04-10T22:33:40.519Z,99.90
2019-04-10T22:36:08.668Z,99.90
2019-04-10T22:38:37.713Z,99.90
2019-04-10T22:41:17.427Z,99.90
2019-04-10T22:43:33.169Z,99.90
2019-04-10T22:46:02.497Z,99.90
2019-04-10T22:48:30.627Z,99.90
2019-04-10T22:50:57.672Z,99.90
2019-04-10T22:53:25.910Z,99.90
2019-04-10T22:55:54.154Z,99.90
2019-04-10T22:58:22.391Z,99.90
2019-04-10T23:00:50.934Z,99.90
2019-04-10T23:03:18.855Z,99.90
2019-04-10T23:05:47.095Z,99.90
2019-04-10T23:08:15.639Z,99.90
2019-04-10T23:10:43.603Z,99.90
2019-04-10T23:13:12.019Z,99.90
2019-04-10T23:15:40.015Z,99.90
2019-04-10T23:18:08.245Z,99.90
2019-04-10T23:20:36.449Z,99.90
2019-04-10T23:23:04.703Z,99.90
2019-04-10T23:25:32.879Z,99.90
2019-04-10T23:28:01.150Z,99.90
2019-04-10T23:30:29.359Z,99.90
2019-04-10T23:32:57.608Z,99.90
2019-04-10T23:35:25.828Z,99.90
2019-04-10T23:37:55.109Z,99.90
2019-04-10T23:40:23.013Z,99.90
2019-04-10T23:43:02.662Z,99.90
2019-04-10T23:45:19.641Z,99.90
2019-04-10T23:47:48.669Z,99.90
2019-04-10T23:50:16.556Z,99.90
2019-04-10T23:52:44.434Z,99.90
2019-04-10T23:55:13.617Z,99.90
2019-04-10T23:57:41.191Z,99.90
